sensor_id;sensor_type;location;lat;lon;timestamp;P1;durP1;ratioP1;P2;durP2;ratioP2
68319;SDS011;55168;51.120;17.024;2024-01-15T00:00:00;16.3;;;11.4;;
68319;SDS011;55168;51.120;17.024;2024-01-15T00:01:00;16.3;;;11.4;;
68319;SDS011;55168;51.120;17.024;2024-01-15T00:02:00;16.3;;;11.4;;
68319;SDS011;55168;51.120;17.024;2024-01-15T00:03:00;14.4;;;11.4;;
68319;SDS011;55168;51.120;17.024;2024-01-15T00:04:00;14.4;;;11.4;;
68319;SDS011;55168;51.120;17.024;2024-01-15T00:05:00;14.4;;;11.4;;
68319;SDS011;55168;51.120;17.024;2024-01-15T00:06:00;14.4;;;11.4;;
68319;SDS011;55168;51.120;17.024;2024-01-15T00:07:00;14.4;;;11.4;;
68319;SDS011;55168;51.120;17.024;2024-01-15T00:08:00;14.2;;;10.8;;
68319;SDS011;55168;51.120;17.024;2024-01-15T00:09:00;14.2;;;10.8;;
68319;SDS011;55168;51.120;17.024;2024-01-15T00:10:00;14.2;;;10.8;;
68319;SDS011;55168;51.120;17.024;2024-01-15T00:11:00;14.2;;;10.8;;
68319;SDS011;55168;51.120;17.024;2024-01-15T00:12:01;14.2;;;10.8;;
68319;SDS011;55168;51.120;17.024;2024-01-15T00:13:00;15.2;;;11.5;;
68319;SDS011;55168;51.120;17.024;2024-01-15T00:14:00;15.2;;;11.5;;
68319;SDS011;55168;51.120;17.024;2024-01-15T00:15:00;15.2;;;11.5;;
68319;SDS011;55168;51.120;17.024;2024-01-15T00:16:00;15.2;;;11.5;;
68319;SDS011;55168;51.120;17.024;2024-01-15T00:17:00;15.2;;;11.5;;
68319;SDS011;55168;51.120;17.024;2024-01-15T00:18:00;15.3;;;10.7;;
68319;SDS011;55168;51.120;17.024;2024-01-15T00:19:00;15.3;;;10.7;;
68319;SDS011;55168;51.120;17.024;2024-01-15T00:20:00;15.3;;;10.7;;
68319;SDS011;55168;51.120;17.024;2024-01-15T00:21:00;15.3;;;10.7;;
68319;SDS011;55168;51.120;17.024;2024-01-15T00:22:00;15.3;;;10.7;;
68319;SDS011;55168;51.120;17.024;2024-01-15T00:23:00;14.6;;;10.6;;
68319;SDS011;55168;51.120;17.024;2024-01-15T00:24:00;14.6;;;10.6;;
68319;SDS011;55168;51.120;17.024;2024-01-15T00:25:00;14.6;;;10.6;;
68319;SDS011;55168;51.120;17.024;2024-01-15T00:26:00;14.6;;;10.6;;
68319;SDS011;55168;51.120;17.024;2024-01-15T00:27:00;14.6;;;10.6;;
68319;SDS011;55168;51.120;17.024;2024-01-15T00:28:00;14.0;;;10.8;;
68319;SDS011;55168;51.120;17.024;2024-01-15T00:29:00;14.0;;;10.8;;
68319;SDS011;55168;51.120;17.024;2024-01-15T00:30:00;14.0;;;10.8;;
68319;SDS011;55168;51.120;17.024;2024-01-15T00:31:00;14.0;;;10.8;;
68319;SDS011;55168;51.120;17.024;2024-01-15T00:32:00;14.0;;;10.8;;
68319;SDS011;55168;51.120;17.024;2024-01-15T00:33:00;13.9;;;10.4;;
68319;SDS011;55168;51.120;17.024;2024-01-15T00:34:00;13.9;;;10.4;;
68319;SDS011;55168;51.120;17.024;2024-01-15T00:35:00;13.9;;;10.4;;
68319;SDS011;55168;51.120;17.024;2024-01-15T00:36:00;13.9;;;10.4;;
68319;SDS011;55168;51.120;17.024;2024-01-15T00:37:00;13.9;;;10.4;;
68319;SDS011;55168;51.120;17.024;2024-01-15T00:38:00;12.2;;;9.9;;
68319;SDS011;55168;51.120;17.024;2024-01-15T00:39:00;12.2;;;9.9;;
68319;SDS011;55168;51.120;17.024;2024-01-15T00:40:00;12.2;;;9.9;;
68319;SDS011;55168;51.120;17.024;2024-01-15T00:41:00;12.2;;;9.9;;
68319;SDS011;55168;51.120;17.024;2024-01-15T00:42:00;12.2;;;9.9;;
68319;SDS011;55168;51.120;17.024;2024-01-15T00:43:00;14.1;;;9.8;;
68319;SDS011;55168;51.120;17.024;2024-01-15T00:44:00;14.1;;;9.8;;
68319;SDS011;55168;51.120;17.024;2024-01-15T00:45:00;14.1;;;9.8;;
68319;SDS011;55168;51.120;17.024;2024-01-15T00:46:02;14.1;;;9.8;;
68319;SDS011;55168;51.120;17.024;2024-01-15T00:47:00;14.1;;;9.8;;
68319;SDS011;55168;51.120;17.024;2024-01-15T00:48:00;12.4;;;9.6;;
68319;SDS011;55168;51.120;17.024;2024-01-15T00:49:00;12.4;;;9.6;;
68319;SDS011;55168;51.120;17.024;2024-01-15T00:50:00;12.4;;;9.6;;
68319;SDS011;55168;51.120;17.024;2024-01-15T00:51:00;12.4;;;9.6;;
68319;SDS011;55168;51.120;17.024;2024-01-15T00:52:00;12.4;;;9.6;;
68319;SDS011;55168;51.120;17.024;2024-01-15T00:53:00;12.2;;;9.6;;
68319;SDS011;55168;51.120;17.024;2024-01-15T00:54:00;12.2;;;9.6;;
68319;SDS011;55168;51.120;17.024;2024-01-15T00:55:00;12.2;;;9.6;;
68319;SDS011;55168;51.120;17.024;2024-01-15T00:56:00;12.2;;;9.6;;
68319;SDS011;55168;51.120;17.024;2024-01-15T00:57:00;12.2;;;9.6;;
68319;SDS011;55168;51.120;17.024;2024-01-15T00:58:00;12.2;;;9.8;;
68319;SDS011;55168;51.120;17.024;2024-01-15T00:59:00;12.2;;;9.8;;
68319;SDS011;55168;51.120;17.024;2024-01-15T01:00:00;12.2;;;9.8;;
68319;SDS011;55168;51.120;17.024;2024-01-15T01:01:00;12.2;;;9.8;;
68319;SDS011;55168;51.120;17.024;2024-01-15T01:02:00;12.1;;;9.9;;
68319;SDS011;55168;51.120;17.024;2024-01-15T01:03:00;12.1;;;9.9;;
68319;SDS011;55168;51.120;17.024;2024-01-15T01:04:00;12.1;;;9.9;;
68319;SDS011;55168;51.120;17.024;2024-01-15T01:05:00;12.1;;;9.9;;
68319;SDS011;55168;51.120;17.024;2024-01-15T01:06:00;12.1;;;9.9;;
68319;SDS011;55168;51.120;17.024;2024-01-15T01:07:00;12.9;;;9.8;;
68319;SDS011;55168;51.120;17.024;2024-01-15T01:08:00;12.9;;;9.8;;
68319;SDS011;55168;51.120;17.024;2024-01-15T01:09:00;12.9;;;9.8;;
68319;SDS011;55168;51.120;17.024;2024-01-15T01:10:00;12.9;;;9.8;;
68319;SDS011;55168;51.120;17.024;2024-01-15T01:11:00;12.9;;;9.8;;
68319;SDS011;55168;51.120;17.024;2024-01-15T01:12:00;12.8;;;9.5;;
68319;SDS011;55168;51.120;17.024;2024-01-15T01:13:00;12.8;;;9.5;;
68319;SDS011;55168;51.120;17.024;2024-01-15T01:14:00;12.8;;;9.5;;
68319;SDS011;55168;51.120;17.024;2024-01-15T01:15:00;12.8;;;9.5;;
68319;SDS011;55168;51.120;17.024;2024-01-15T01:16:00;12.8;;;9.5;;
68319;SDS011;55168;51.120;17.024;2024-01-15T01:17:00;12.6;;;9.8;;
68319;SDS011;55168;51.120;17.024;2024-01-15T01:18:00;12.6;;;9.8;;
68319;SDS011;55168;51.120;17.024;2024-01-15T01:19:00;12.6;;;9.8;;
68319;SDS011;55168;51.120;17.024;2024-01-15T01:20:00;12.6;;;9.8;;
68319;SDS011;55168;51.120;17.024;2024-01-15T01:21:00;12.6;;;9.8;;
68319;SDS011;55168;51.120;17.024;2024-01-15T01:22:00;13.3;;;10.0;;
68319;SDS011;55168;51.120;17.024;2024-01-15T01:23:00;13.3;;;10.0;;
68319;SDS011;55168;51.120;17.024;2024-01-15T01:24:00;13.3;;;10.0;;
68319;SDS011;55168;51.120;17.024;2024-01-15T01:25:00;13.3;;;10.0;;
68319;SDS011;55168;51.120;17.024;2024-01-15T01:26:00;13.3;;;10.0;;
68319;SDS011;55168;51.120;17.024;2024-01-15T01:27:00;12.2;;;9.9;;
68319;SDS011;55168;51.120;17.024;2024-01-15T01:28:00;12.2;;;9.9;;
68319;SDS011;55168;51.120;17.024;2024-01-15T01:29:00;12.2;;;9.9;;
68319;SDS011;55168;51.120;17.024;2024-01-15T01:30:00;12.2;;;9.9;;
68319;SDS011;55168;51.120;17.024;2024-01-15T01:31:00;12.2;;;9.9;;
68319;SDS011;55168;51.120;17.024;2024-01-15T01:32:00;12.7;;;10.2;;
68319;SDS011;55168;51.120;17.024;2024-01-15T01:33:00;12.7;;;10.2;;
68319;SDS011;55168;51.120;17.024;2024-01-15T01:34:00;12.7;;;10.2;;
68319;SDS011;55168;51.120;17.024;2024-01-15T01:35:00;12.7;;;10.2;;
68319;SDS011;55168;51.120;17.024;2024-01-15T01:36:00;12.7;;;10.2;;
68319;SDS011;55168;51.120;17.024;2024-01-15T01:37:00;13.8;;;10.6;;
68319;SDS011;55168;51.120;17.024;2024-01-15T01:38:00;13.8;;;10.6;;
68319;SDS011;55168;51.120;17.024;2024-01-15T01:39:00;13.8;;;10.6;;
68319;SDS011;55168;51.120;17.024;2024-01-15T01:40:00;13.8;;;10.6;;
68319;SDS011;55168;51.120;17.024;2024-01-15T01:41:00;13.8;;;10.6;;
68319;SDS011;55168;51.120;17.024;2024-01-15T01:42:00;13.1;;;10.6;;
68319;SDS011;55168;51.120;17.024;2024-01-15T01:43:00;13.1;;;10.6;;
68319;SDS011;55168;51.120;17.024;2024-01-15T01:44:00;13.1;;;10.6;;
68319;SDS011;55168;51.120;17.024;2024-01-15T01:45:00;13.1;;;10.6;;
68319;SDS011;55168;51.120;17.024;2024-01-15T01:46:00;13.1;;;10.6;;
68319;SDS011;55168;51.120;17.024;2024-01-15T01:47:00;14.2;;;11.3;;
68319;SDS011;55168;51.120;17.024;2024-01-15T01:48:01;14.2;;;11.3;;
68319;SDS011;55168;51.120;17.024;2024-01-15T01:49:00;14.2;;;11.3;;
68319;SDS011;55168;51.120;17.024;2024-01-15T01:50:01;14.2;;;11.3;;
68319;SDS011;55168;51.120;17.024;2024-01-15T01:51:02;14.2;;;11.3;;
68319;SDS011;55168;51.120;17.024;2024-01-15T01:52:01;13.3;;;10.6;;
68319;SDS011;55168;51.120;17.024;2024-01-15T01:53:01;13.3;;;10.6;;
68319;SDS011;55168;51.120;17.024;2024-01-15T01:54:00;13.3;;;10.6;;
68319;SDS011;55168;51.120;17.024;2024-01-15T01:55:02;13.3;;;10.6;;
68319;SDS011;55168;51.120;17.024;2024-01-15T01:56:00;13.3;;;10.6;;
68319;SDS011;55168;51.120;17.024;2024-01-15T01:57:02;13.1;;;10.5;;
68319;SDS011;55168;51.120;17.024;2024-01-15T01:58:00;13.1;;;10.5;;
68319;SDS011;55168;51.120;17.024;2024-01-15T01:59:01;13.1;;;10.5;;
68319;SDS011;55168;51.120;17.024;2024-01-15T02:00:01;13.1;;;10.5;;
68319;SDS011;55168;51.120;17.024;2024-01-15T02:01:00;13.1;;;10.5;;
68319;SDS011;55168;51.120;17.024;2024-01-15T02:02:00;12.8;;;9.9;;
68319;SDS011;55168;51.120;17.024;2024-01-15T02:03:00;12.8;;;9.9;;
68319;SDS011;55168;51.120;17.024;2024-01-15T02:04:00;12.8;;;9.9;;
68319;SDS011;55168;51.120;17.024;2024-01-15T02:05:00;12.8;;;9.9;;
68319;SDS011;55168;51.120;17.024;2024-01-15T02:06:00;12.8;;;9.9;;
68319;SDS011;55168;51.120;17.024;2024-01-15T02:07:00;13.6;;;10.6;;
68319;SDS011;55168;51.120;17.024;2024-01-15T02:08:00;13.6;;;10.6;;
68319;SDS011;55168;51.120;17.024;2024-01-15T02:09:00;13.6;;;10.6;;
68319;SDS011;55168;51.120;17.024;2024-01-15T02:10:00;13.6;;;10.6;;
68319;SDS011;55168;51.120;17.024;2024-01-15T02:11:00;13.6;;;10.6;;
68319;SDS011;55168;51.120;17.024;2024-01-15T02:12:00;12.0;;;9.9;;
68319;SDS011;55168;51.120;17.024;2024-01-15T02:13:00;12.0;;;9.9;;
68319;SDS011;55168;51.120;17.024;2024-01-15T02:14:00;12.0;;;9.9;;
68319;SDS011;55168;51.120;17.024;2024-01-15T02:15:00;12.0;;;9.9;;
68319;SDS011;55168;51.120;17.024;2024-01-15T02:16:00;12.0;;;9.9;;
68319;SDS011;55168;51.120;17.024;2024-01-15T02:17:00;12.3;;;10.0;;
68319;SDS011;55168;51.120;17.024;2024-01-15T02:18:01;12.3;;;10.0;;
68319;SDS011;55168;51.120;17.024;2024-01-15T02:19:00;12.3;;;10.0;;
68319;SDS011;55168;51.120;17.024;2024-01-15T02:20:00;12.3;;;10.0;;
68319;SDS011;55168;51.120;17.024;2024-01-15T02:21:00;12.3;;;10.0;;
68319;SDS011;55168;51.120;17.024;2024-01-15T02:22:00;13.2;;;10.1;;
68319;SDS011;55168;51.120;17.024;2024-01-15T02:23:02;13.2;;;10.1;;
68319;SDS011;55168;51.120;17.024;2024-01-15T02:24:00;13.2;;;10.1;;
68319;SDS011;55168;51.120;17.024;2024-01-15T02:25:00;13.2;;;10.1;;
68319;SDS011;55168;51.120;17.024;2024-01-15T02:26:01;13.2;;;10.1;;
68319;SDS011;55168;51.120;17.024;2024-01-15T02:27:00;13.2;;;10.4;;
68319;SDS011;55168;51.120;17.024;2024-01-15T02:28:00;13.2;;;10.4;;
68319;SDS011;55168;51.120;17.024;2024-01-15T02:29:00;13.2;;;10.4;;
68319;SDS011;55168;51.120;17.024;2024-01-15T02:30:00;13.2;;;10.4;;
68319;SDS011;55168;51.120;17.024;2024-01-15T02:31:00;13.2;;;10.4;;
68319;SDS011;55168;51.120;17.024;2024-01-15T02:32:03;13.0;;;10.6;;
68319;SDS011;55168;51.120;17.024;2024-01-15T02:33:00;13.0;;;10.6;;
68319;SDS011;55168;51.120;17.024;2024-01-15T02:34:00;13.0;;;10.6;;
68319;SDS011;55168;51.120;17.024;2024-01-15T02:35:00;13.0;;;10.6;;
68319;SDS011;55168;51.120;17.024;2024-01-15T02:36:00;13.0;;;10.6;;
68319;SDS011;55168;51.120;17.024;2024-01-15T02:37:00;11.9;;;10.2;;
68319;SDS011;55168;51.120;17.024;2024-01-15T02:38:00;11.9;;;10.2;;
68319;SDS011;55168;51.120;17.024;2024-01-15T02:39:00;11.9;;;10.2;;
68319;SDS011;55168;51.120;17.024;2024-01-15T02:40:00;11.9;;;10.2;;
68319;SDS011;55168;51.120;17.024;2024-01-15T02:41:00;11.9;;;10.2;;
68319;SDS011;55168;51.120;17.024;2024-01-15T02:42:00;14.2;;;10.7;;
68319;SDS011;55168;51.120;17.024;2024-01-15T02:43:00;14.2;;;10.7;;
68319;SDS011;55168;51.120;17.024;2024-01-15T02:44:00;14.2;;;10.7;;
68319;SDS011;55168;51.120;17.024;2024-01-15T02:45:00;14.2;;;10.7;;
68319;SDS011;55168;51.120;17.024;2024-01-15T02:46:00;14.2;;;10.7;;
68319;SDS011;55168;51.120;17.024;2024-01-15T02:47:00;13.0;;;10.5;;
68319;SDS011;55168;51.120;17.024;2024-01-15T02:48:00;13.0;;;10.5;;
68319;SDS011;55168;51.120;17.024;2024-01-15T02:49:00;13.0;;;10.5;;
68319;SDS011;55168;51.120;17.024;2024-01-15T02:50:00;13.0;;;10.5;;
68319;SDS011;55168;51.120;17.024;2024-01-15T02:51:00;13.0;;;10.5;;
68319;SDS011;55168;51.120;17.024;2024-01-15T02:52:00;13.9;;;10.4;;
68319;SDS011;55168;51.120;17.024;2024-01-15T02:53:00;13.9;;;10.4;;
68319;SDS011;55168;51.120;17.024;2024-01-15T02:54:00;13.9;;;10.4;;
68319;SDS011;55168;51.120;17.024;2024-01-15T02:55:00;13.9;;;10.4;;
68319;SDS011;55168;51.120;17.024;2024-01-15T02:56:00;13.9;;;10.4;;
68319;SDS011;55168;51.120;17.024;2024-01-15T02:57:00;12.8;;;10.5;;
68319;SDS011;55168;51.120;17.024;2024-01-15T02:58:00;12.8;;;10.5;;
68319;SDS011;55168;51.120;17.024;2024-01-15T02:59:00;12.8;;;10.5;;
68319;SDS011;55168;51.120;17.024;2024-01-15T03:00:00;12.8;;;10.5;;
68319;SDS011;55168;51.120;17.024;2024-01-15T03:01:00;12.8;;;10.5;;
68319;SDS011;55168;51.120;17.024;2024-01-15T03:02:00;11.1;;;9.7;;
68319;SDS011;55168;51.120;17.024;2024-01-15T03:03:00;11.1;;;9.7;;
68319;SDS011;55168;51.120;17.024;2024-01-15T03:04:00;11.1;;;9.7;;
68319;SDS011;55168;51.120;17.024;2024-01-15T03:05:00;11.1;;;9.7;;
68319;SDS011;55168;51.120;17.024;2024-01-15T03:06:01;11.1;;;9.7;;
68319;SDS011;55168;51.120;17.024;2024-01-15T03:07:00;11.7;;;9.3;;
68319;SDS011;55168;51.120;17.024;2024-01-15T03:08:00;11.7;;;9.3;;
68319;SDS011;55168;51.120;17.024;2024-01-15T03:09:00;11.7;;;9.3;;
68319;SDS011;55168;51.120;17.024;2024-01-15T03:10:00;11.7;;;9.3;;
68319;SDS011;55168;51.120;17.024;2024-01-15T03:11:00;11.7;;;9.3;;
68319;SDS011;55168;51.120;17.024;2024-01-15T03:12:00;11.1;;;9.2;;
68319;SDS011;55168;51.120;17.024;2024-01-15T03:13:00;11.1;;;9.2;;
68319;SDS011;55168;51.120;17.024;2024-01-15T03:14:00;11.1;;;9.2;;
68319;SDS011;55168;51.120;17.024;2024-01-15T03:15:00;11.1;;;9.2;;
68319;SDS011;55168;51.120;17.024;2024-01-15T03:16:00;11.1;;;9.2;;
68319;SDS011;55168;51.120;17.024;2024-01-15T03:17:00;11.0;;;8.8;;
68319;SDS011;55168;51.120;17.024;2024-01-15T03:18:00;11.0;;;8.8;;
68319;SDS011;55168;51.120;17.024;2024-01-15T03:19:00;11.0;;;8.8;;
68319;SDS011;55168;51.120;17.024;2024-01-15T03:20:01;11.0;;;8.8;;
68319;SDS011;55168;51.120;17.024;2024-01-15T03:21:00;11.0;;;8.8;;
68319;SDS011;55168;51.120;17.024;2024-01-15T03:22:00;11.7;;;8.9;;
68319;SDS011;55168;51.120;17.024;2024-01-15T03:23:00;11.7;;;8.9;;
68319;SDS011;55168;51.120;17.024;2024-01-15T03:24:00;11.7;;;8.9;;
68319;SDS011;55168;51.120;17.024;2024-01-15T03:25:00;11.7;;;8.9;;
68319;SDS011;55168;51.120;17.024;2024-01-15T03:26:00;11.7;;;8.9;;
68319;SDS011;55168;51.120;17.024;2024-01-15T03:27:00;9.5;;;8.2;;
68319;SDS011;55168;51.120;17.024;2024-01-15T03:28:00;9.5;;;8.2;;
68319;SDS011;55168;51.120;17.024;2024-01-15T03:29:00;9.5;;;8.2;;
68319;SDS011;55168;51.120;17.024;2024-01-15T03:30:00;9.5;;;8.2;;
68319;SDS011;55168;51.120;17.024;2024-01-15T03:31:00;9.5;;;8.2;;
68319;SDS011;55168;51.120;17.024;2024-01-15T03:32:00;11.3;;;8.5;;
68319;SDS011;55168;51.120;17.024;2024-01-15T03:33:00;11.3;;;8.5;;
68319;SDS011;55168;51.120;17.024;2024-01-15T03:34:00;11.3;;;8.5;;
68319;SDS011;55168;51.120;17.024;2024-01-15T03:35:00;11.3;;;8.5;;
68319;SDS011;55168;51.120;17.024;2024-01-15T03:36:00;11.3;;;8.5;;
68319;SDS011;55168;51.120;17.024;2024-01-15T03:37:00;10.0;;;8.5;;
68319;SDS011;55168;51.120;17.024;2024-01-15T03:38:00;10.0;;;8.5;;
68319;SDS011;55168;51.120;17.024;2024-01-15T03:39:00;10.0;;;8.5;;
68319;SDS011;55168;51.120;17.024;2024-01-15T03:40:00;10.0;;;8.5;;
68319;SDS011;55168;51.120;17.024;2024-01-15T03:41:00;10.0;;;8.5;;
68319;SDS011;55168;51.120;17.024;2024-01-15T03:42:00;11.7;;;8.6;;
68319;SDS011;55168;51.120;17.024;2024-01-15T03:43:00;11.7;;;8.6;;
68319;SDS011;55168;51.120;17.024;2024-01-15T03:44:00;11.7;;;8.6;;
68319;SDS011;55168;51.120;17.024;2024-01-15T03:45:00;11.7;;;8.6;;
68319;SDS011;55168;51.120;17.024;2024-01-15T03:46:00;11.7;;;8.6;;
68319;SDS011;55168;51.120;17.024;2024-01-15T03:47:00;10.4;;;8.2;;
68319;SDS011;55168;51.120;17.024;2024-01-15T03:48:00;10.4;;;8.2;;
68319;SDS011;55168;51.120;17.024;2024-01-15T03:49:00;10.4;;;8.2;;
68319;SDS011;55168;51.120;17.024;2024-01-15T03:50:00;10.4;;;8.2;;
68319;SDS011;55168;51.120;17.024;2024-01-15T03:51:00;10.4;;;8.2;;
68319;SDS011;55168;51.120;17.024;2024-01-15T03:52:00;9.4;;;8.0;;
68319;SDS011;55168;51.120;17.024;2024-01-15T03:53:00;9.4;;;8.0;;
68319;SDS011;55168;51.120;17.024;2024-01-15T03:54:00;9.4;;;8.0;;
68319;SDS011;55168;51.120;17.024;2024-01-15T03:55:00;9.4;;;8.0;;
68319;SDS011;55168;51.120;17.024;2024-01-15T03:56:00;9.4;;;8.0;;
68319;SDS011;55168;51.120;17.024;2024-01-15T03:57:00;10.2;;;8.6;;
68319;SDS011;55168;51.120;17.024;2024-01-15T03:58:00;10.2;;;8.6;;
68319;SDS011;55168;51.120;17.024;2024-01-15T03:59:00;10.2;;;8.6;;
68319;SDS011;55168;51.120;17.024;2024-01-15T04:00:00;10.2;;;8.6;;
68319;SDS011;55168;51.120;17.024;2024-01-15T04:01:00;10.2;;;8.6;;
68319;SDS011;55168;51.120;17.024;2024-01-15T04:02:00;9.2;;;8.0;;
68319;SDS011;55168;51.120;17.024;2024-01-15T04:03:00;9.2;;;8.0;;
68319;SDS011;55168;51.120;17.024;2024-01-15T04:04:00;9.2;;;8.0;;
68319;SDS011;55168;51.120;17.024;2024-01-15T04:05:00;9.2;;;8.0;;
68319;SDS011;55168;51.120;17.024;2024-01-15T04:06:00;9.2;;;8.0;;
68319;SDS011;55168;51.120;17.024;2024-01-15T04:07:00;9.6;;;8.1;;
68319;SDS011;55168;51.120;17.024;2024-01-15T04:08:00;9.6;;;8.1;;
68319;SDS011;55168;51.120;17.024;2024-01-15T04:09:00;9.6;;;8.1;;
68319;SDS011;55168;51.120;17.024;2024-01-15T04:10:00;9.6;;;8.1;;
68319;SDS011;55168;51.120;17.024;2024-01-15T04:11:00;9.6;;;8.1;;
68319;SDS011;55168;51.120;17.024;2024-01-15T04:12:00;9.3;;;8.2;;
68319;SDS011;55168;51.120;17.024;2024-01-15T04:13:00;9.3;;;8.2;;
68319;SDS011;55168;51.120;17.024;2024-01-15T04:14:00;9.3;;;8.2;;
68319;SDS011;55168;51.120;17.024;2024-01-15T04:15:00;9.3;;;8.2;;
68319;SDS011;55168;51.120;17.024;2024-01-15T04:16:00;9.3;;;8.2;;
68319;SDS011;55168;51.120;17.024;2024-01-15T04:17:00;10.2;;;8.0;;
68319;SDS011;55168;51.120;17.024;2024-01-15T04:18:00;10.2;;;8.0;;
68319;SDS011;55168;51.120;17.024;2024-01-15T04:19:00;10.2;;;8.0;;
68319;SDS011;55168;51.120;17.024;2024-01-15T04:20:00;10.2;;;8.0;;
68319;SDS011;55168;51.120;17.024;2024-01-15T04:21:00;10.2;;;8.0;;
68319;SDS011;55168;51.120;17.024;2024-01-15T04:22:00;9.9;;;8.3;;
68319;SDS011;55168;51.120;17.024;2024-01-15T04:23:00;9.9;;;8.3;;
68319;SDS011;55168;51.120;17.024;2024-01-15T04:24:00;9.9;;;8.3;;
68319;SDS011;55168;51.120;17.024;2024-01-15T04:25:00;9.9;;;8.3;;
68319;SDS011;55168;51.120;17.024;2024-01-15T04:26:00;9.9;;;8.3;;
68319;SDS011;55168;51.120;17.024;2024-01-15T04:27:00;9.4;;;7.6;;
68319;SDS011;55168;51.120;17.024;2024-01-15T04:28:00;9.4;;;7.6;;
68319;SDS011;55168;51.120;17.024;2024-01-15T04:29:00;9.4;;;7.6;;
68319;SDS011;55168;51.120;17.024;2024-01-15T04:30:00;9.4;;;7.6;;
68319;SDS011;55168;51.120;17.024;2024-01-15T04:31:00;9.4;;;7.6;;
68319;SDS011;55168;51.120;17.024;2024-01-15T04:32:00;8.5;;;7.6;;
68319;SDS011;55168;51.120;17.024;2024-01-15T04:33:00;8.5;;;7.6;;
68319;SDS011;55168;51.120;17.024;2024-01-15T04:34:00;8.5;;;7.6;;
68319;SDS011;55168;51.120;17.024;2024-01-15T04:35:00;8.5;;;7.6;;
68319;SDS011;55168;51.120;17.024;2024-01-15T04:36:03;8.5;;;7.6;;
68319;SDS011;55168;51.120;17.024;2024-01-15T04:37:00;8.2;;;6.9;;
68319;SDS011;55168;51.120;17.024;2024-01-15T04:38:00;8.2;;;6.9;;
68319;SDS011;55168;51.120;17.024;2024-01-15T04:39:00;8.2;;;6.9;;
68319;SDS011;55168;51.120;17.024;2024-01-15T04:40:00;8.2;;;6.9;;
68319;SDS011;55168;51.120;17.024;2024-01-15T04:41:00;8.2;;;6.9;;
68319;SDS011;55168;51.120;17.024;2024-01-15T04:42:00;9.1;;;7.2;;
68319;SDS011;55168;51.120;17.024;2024-01-15T04:43:00;9.1;;;7.2;;
68319;SDS011;55168;51.120;17.024;2024-01-15T04:44:00;9.1;;;7.2;;
68319;SDS011;55168;51.120;17.024;2024-01-15T04:45:00;9.1;;;7.2;;
68319;SDS011;55168;51.120;17.024;2024-01-15T04:46:00;9.1;;;7.2;;
68319;SDS011;55168;51.120;17.024;2024-01-15T04:47:00;8.6;;;7.2;;
68319;SDS011;55168;51.120;17.024;2024-01-15T04:48:00;8.6;;;7.2;;
68319;SDS011;55168;51.120;17.024;2024-01-15T04:49:00;8.6;;;7.2;;
68319;SDS011;55168;51.120;17.024;2024-01-15T04:50:00;8.6;;;7.2;;
68319;SDS011;55168;51.120;17.024;2024-01-15T04:51:00;8.6;;;7.2;;
68319;SDS011;55168;51.120;17.024;2024-01-15T04:52:00;8.0;;;6.9;;
68319;SDS011;55168;51.120;17.024;2024-01-15T04:53:00;8.0;;;6.9;;
68319;SDS011;55168;51.120;17.024;2024-01-15T04:54:00;8.0;;;6.9;;
68319;SDS011;55168;51.120;17.024;2024-01-15T04:55:00;8.0;;;6.9;;
68319;SDS011;55168;51.120;17.024;2024-01-15T04:56:00;8.0;;;6.9;;
68319;SDS011;55168;51.120;17.024;2024-01-15T04:57:00;10.4;;;7.7;;
68319;SDS011;55168;51.120;17.024;2024-01-15T04:58:00;10.4;;;7.7;;
68319;SDS011;55168;51.120;17.024;2024-01-15T04:59:00;10.4;;;7.7;;
68319;SDS011;55168;51.120;17.024;2024-01-15T05:00:00;10.4;;;7.7;;
68319;SDS011;55168;51.120;17.024;2024-01-15T05:01:00;10.4;;;7.7;;
68319;SDS011;55168;51.120;17.024;2024-01-15T05:02:00;9.3;;;7.9;;
68319;SDS011;55168;51.120;17.024;2024-01-15T05:03:00;9.3;;;7.9;;
68319;SDS011;55168;51.120;17.024;2024-01-15T05:04:00;9.3;;;7.9;;
68319;SDS011;55168;51.120;17.024;2024-01-15T05:05:00;9.3;;;7.9;;
68319;SDS011;55168;51.120;17.024;2024-01-15T05:06:00;9.3;;;7.9;;
68319;SDS011;55168;51.120;17.024;2024-01-15T05:07:00;10.8;;;7.6;;
68319;SDS011;55168;51.120;17.024;2024-01-15T05:08:00;10.8;;;7.6;;
68319;SDS011;55168;51.120;17.024;2024-01-15T05:09:00;10.8;;;7.6;;
68319;SDS011;55168;51.120;17.024;2024-01-15T05:10:00;10.8;;;7.6;;
68319;SDS011;55168;51.120;17.024;2024-01-15T05:11:00;10.8;;;7.6;;
68319;SDS011;55168;51.120;17.024;2024-01-15T05:12:00;7.7;;;6.9;;
68319;SDS011;55168;51.120;17.024;2024-01-15T05:13:00;7.7;;;6.9;;
68319;SDS011;55168;51.120;17.024;2024-01-15T05:14:00;7.7;;;6.9;;
68319;SDS011;55168;51.120;17.024;2024-01-15T05:15:00;7.7;;;6.9;;
68319;SDS011;55168;51.120;17.024;2024-01-15T05:16:00;7.7;;;6.9;;
68319;SDS011;55168;51.120;17.024;2024-01-15T05:17:00;7.7;;;6.6;;
68319;SDS011;55168;51.120;17.024;2024-01-15T05:18:00;7.7;;;6.6;;
68319;SDS011;55168;51.120;17.024;2024-01-15T05:19:00;7.7;;;6.6;;
68319;SDS011;55168;51.120;17.024;2024-01-15T05:20:00;7.7;;;6.6;;
68319;SDS011;55168;51.120;17.024;2024-01-15T05:21:00;7.7;;;6.6;;
68319;SDS011;55168;51.120;17.024;2024-01-15T05:22:00;7.6;;;6.7;;
68319;SDS011;55168;51.120;17.024;2024-01-15T05:23:00;7.6;;;6.7;;
68319;SDS011;55168;51.120;17.024;2024-01-15T05:24:00;7.6;;;6.7;;
68319;SDS011;55168;51.120;17.024;2024-01-15T05:25:00;7.6;;;6.7;;
68319;SDS011;55168;51.120;17.024;2024-01-15T05:26:00;7.6;;;6.7;;
68319;SDS011;55168;51.120;17.024;2024-01-15T05:27:00;9.9;;;6.8;;
68319;SDS011;55168;51.120;17.024;2024-01-15T05:28:01;9.9;;;6.8;;
68319;SDS011;55168;51.120;17.024;2024-01-15T05:29:00;9.9;;;6.8;;
68319;SDS011;55168;51.120;17.024;2024-01-15T05:30:00;9.9;;;6.8;;
68319;SDS011;55168;51.120;17.024;2024-01-15T05:31:00;9.9;;;6.8;;
68319;SDS011;55168;51.120;17.024;2024-01-15T05:32:00;8.6;;;6.7;;
68319;SDS011;55168;51.120;17.024;2024-01-15T05:33:00;8.6;;;6.7;;
68319;SDS011;55168;51.120;17.024;2024-01-15T05:34:00;8.6;;;6.7;;
68319;SDS011;55168;51.120;17.024;2024-01-15T05:35:00;8.6;;;6.7;;
68319;SDS011;55168;51.120;17.024;2024-01-15T05:36:00;8.6;;;6.7;;
68319;SDS011;55168;51.120;17.024;2024-01-15T05:37:00;8.7;;;7.0;;
68319;SDS011;55168;51.120;17.024;2024-01-15T05:38:00;8.7;;;7.0;;
68319;SDS011;55168;51.120;17.024;2024-01-15T05:39:00;8.7;;;7.0;;
68319;SDS011;55168;51.120;17.024;2024-01-15T05:40:00;8.7;;;7.0;;
68319;SDS011;55168;51.120;17.024;2024-01-15T05:41:00;8.7;;;7.0;;
68319;SDS011;55168;51.120;17.024;2024-01-15T05:42:00;7.8;;;7.0;;
68319;SDS011;55168;51.120;17.024;2024-01-15T05:43:00;7.8;;;7.0;;
68319;SDS011;55168;51.120;17.024;2024-01-15T05:44:00;7.8;;;7.0;;
68319;SDS011;55168;51.120;17.024;2024-01-15T05:45:00;7.8;;;7.0;;
68319;SDS011;55168;51.120;17.024;2024-01-15T05:46:00;7.8;;;7.0;;
68319;SDS011;55168;51.120;17.024;2024-01-15T05:47:00;8.4;;;7.0;;
68319;SDS011;55168;51.120;17.024;2024-01-15T05:48:00;8.4;;;7.0;;
68319;SDS011;55168;51.120;17.024;2024-01-15T05:49:00;8.4;;;7.0;;
68319;SDS011;55168;51.120;17.024;2024-01-15T05:50:00;8.4;;;7.0;;
68319;SDS011;55168;51.120;17.024;2024-01-15T05:51:00;8.4;;;7.0;;
68319;SDS011;55168;51.120;17.024;2024-01-15T05:52:00;11.6;;;7.4;;
68319;SDS011;55168;51.120;17.024;2024-01-15T05:53:00;11.6;;;7.4;;
68319;SDS011;55168;51.120;17.024;2024-01-15T05:54:00;11.6;;;7.4;;
68319;SDS011;55168;51.120;17.024;2024-01-15T05:55:00;11.6;;;7.4;;
68319;SDS011;55168;51.120;17.024;2024-01-15T05:56:00;11.6;;;7.4;;
68319;SDS011;55168;51.120;17.024;2024-01-15T05:57:00;10.3;;;7.3;;
68319;SDS011;55168;51.120;17.024;2024-01-15T05:58:00;10.3;;;7.3;;
68319;SDS011;55168;51.120;17.024;2024-01-15T05:59:00;10.3;;;7.3;;
68319;SDS011;55168;51.120;17.024;2024-01-15T06:00:00;10.3;;;7.3;;
68319;SDS011;55168;51.120;17.024;2024-01-15T06:01:00;10.3;;;7.3;;